Time;durP1;ratioP1;P1;durP2;ratioP2;P2;SDS_P1;SDS_P2;PMS_P1;PMS_P2;Temp;Humidity;BMP_temperature;BMP_pressure;BME280_temperature;BME280_humidity;BME280_pressure;Samples;Min_cycle;Max_cycle;Signal;HPM_P1;HPM_P2
2022/07/31 00:00:38;;;;;;;6.50;4.10;;;;;;;17.23;100.00;96469.97;5047621;28;20059;-73
2022/07/31 00:03:05;;;;;;;6.57;3.95;;;;;;;17.11;100.00;96469.72;5046702;28;20052;-74
2022/07/31 00:05:31;;;;;;;7.57;3.67;;;;;;;17.01;100.00;96470.06;5041289;28;20032;-74
2022/07/31 00:07:57;;;;;;;6.32;3.78;;;;;;;17.05;100.00;96471.31;5040577;28;20037;-75
2022/07/31 00:10:23;;;;;;;6.15;3.63;;;;;;;16.99;100.00;96479.22;5019806;28;20081;-73
2022/07/31 00:12:49;;;;;;;5.85;2.90;;;;;;;17.00;100.00;96475.53;5048443;28;20035;-74
2022/07/31 00:15:15;;;;;;;5.15;3.28;;;;;;;16.98;100.00;96475.75;5045586;28;20789;-74
2022/07/31 00:17:42;;;;;;;10.20;7.47;;;;;;;16.97;100.00;96482.09;5043099;28;20080;-74
2022/07/31 00:20:12;;;;;;;6.38;4.43;;;;;;;16.98;100.00;96475.75;5045475;28;20033;-73
2022/07/31 00:22:39;;;;;;;7.72;4.72;;;;;;;16.95;100.00;96476.13;5047470;28;20087;-74
2022/07/31 00:25:05;;;;;;;6.30;4.22;;;;;;;16.84;100.00;96474.03;5033329;28;20031;-73
2022/07/31 00:27:31;;;;;;;8.25;5.93;;;;;;;16.94;100.00;96475.31;5035107;28;20061;-74
2022/07/31 00:29:57;;;;;;;8.98;5.63;;;;;;;16.92;100.00;96468.53;5046416;28;20057;-74
2022/07/31 00:32:22;;;;;;;9.75;5.88;;;;;;;16.90;100.00;96460.78;5019844;28;20418;-73
2022/07/31 00:34:49;;;;;;;23.20;18.67;;;;;;;16.82;100.00;96465.41;5027718;28;20219;-74
2022/07/31 00:37:15;;;;;;;42.35;34.25;;;;;;;16.85;100.00;96470.34;5046263;28;20029;-74
2022/07/31 00:39:41;;;;;;;82.50;68.90;;;;;;;16.83;100.00;96465.19;5042256;28;20112;-74
2022/07/31 00:42:21;;;;;;;90.15;74.90;;;;;;;16.82;100.00;96470.72;5041285;28;20493;-74
2022/07/31 00:44:49;;;;;;;14.07;10.80;;;;;;;16.78;100.00;96464.16;5032937;28;20373;-74
2022/07/31 00:47:16;;;;;;;10.60;7.80;;;;;;;16.78;100.00;96464.97;5044210;28;20044;-74
2022/07/31 00:49:41;;;;;;;8.00;5.05;;;;;;;16.52;100.00;96464.72;5044102;28;20418;-73
2022/07/31 00:52:07;;;;;;;6.35;3.78;;;;;;;16.45;100.00;96464.66;5049521;28;20064;-74
2022/07/31 00:54:33;;;;;;;5.85;4.20;;;;;;;16.50;100.00;96468.41;5020549;28;20029;-73
2022/07/31 00:56:59;;;;;;;7.35;4.88;;;;;;;16.54;100.00;96463.53;5027241;28;20044;-75
2022/07/31 00:59:26;;;;;;;11.27;7.03;;;;;;;16.55;100.00;96465.16;5026765;28;20032;-74
2022/07/31 01:01:53;;;;;;;7.20;4.72;;;;;;;16.59;100.00;96474.38;5021653;28;20095;-74
2022/07/31 01:04:18;;;;;;;6.10;4.75;;;;;;;16.51;100.00;96474.53;5031406;28;20040;-74
2022/07/31 01:06:44;;;;;;;8.13;6.03;;;;;;;16.49;100.00;96473.88;5026233;28;20025;-74
2022/07/31 01:09:13;;;;;;;7.57;4.70;;;;;;;16.32;100.00;96468.00;5022722;28;20115;-74
2022/07/31 01:11:54;;;;;;;9.38;4.63;;;;;;;16.38;100.00;96459.28;5026673;28;20048;-75
2022/07/31 01:14:24;;;;;;;6.85;4.50;;;;;;;16.29;100.00;96462.25;5032461;28;20371;-75
2022/07/31 01:16:53;;;;;;;7.75;4.72;;;;;;;16.24;100.00;96463.66;5010610;28;20040;-75
2022/07/31 01:19:36;;;;;;;9.05;4.75;;;;;;;16.30;100.00;96463.88;5025164;28;20372;-74
2022/07/31 01:22:33;;;;;;;6.15;4.32;;;;;;;16.26;100.00;96463.44;5031480;28;20032;-75
2022/07/31 01:25:14;;;;;;;9.90;4.40;;;;;;;16.33;100.00;96463.50;5040173;28;20025;-74
2022/07/31 01:28:23;;;;;;;7.72;4.30;;;;;;;16.34;100.00;96471.31;5025371;28;20029;-74
2022/07/31 01:31:12;;;;;;;7.80;4.18;;;;;;;16.17;100.00;96462.75;5038420;28;20094;-75
2022/07/31 01:33:50;;;;;;;7.35;4.20;;;;;;;16.04;100.00;96462.63;5041491;28;20033;-75
2022/07/31 01:36:21;;;;;;;8.23;4.50;;;;;;;16.18;100.00;96460.94;5025954;28;20438;-75
2022/07/31 01:38:50;;;;;;;8.70;4.72;;;;;;;16.15;100.00;96453.34;5040677;28;20036;-74
2022/07/31 01:41:23;;;;;;;6.60;4.22;;;;;;;16.15;100.00;96454.16;5033555;28;20040;-74
2022/07/31 01:43:53;;;;;;;7.20;4.55;;;;;;;16.10;100.00;96459.22;5027078;28;20029;-75
2022/07/31 01:46:21;;;;;;;7.00;4.38;;;;;;;16.16;100.00;96452.31;5020046;28;20466;-75
2022/07/31 01:48:50;;;;;;;8.40;4.37;;;;;;;16.19;100.00;96455.41;5043462;28;20032;-74
2022/07/31 01:51:18;;;;;;;7.47;4.57;;;;;;;16.19;100.00;96452.75;5010315;28;20033;-74
2022/07/31 01:53:46;;;;;;;6.55;3.95;;;;;;;16.15;100.00;96451.50;5050542;28;20271;-75
2022/07/31 01:56:16;;;;;;;7.45;4.45;;;;;;;16.14;100.00;96447.22;5017562;28;20457;-73
2022/07/31 01:58:44;;;;;;;6.03;4.50;;;;;;;16.15;100.00;96443.53;5029905;28;20436;-74
2022/07/31 02:01:39;;;;;;;6.72;4.13;;;;;;;16.14;100.00;96452.53;5046680;28;20036;-73
2022/07/31 02:04:07;;;;;;;7.22;4.22;;;;;;;16.14;100.00;96452.53;5016270;28;20052;-74
2022/07/31 02:06:34;;;;;;;8.97;4.67;;;;;;;16.13;100.00;96445.59;5049608;28;20095;-74
2022/07/31 02:09:01;;;;;;;7.80;4.40;;;;;;;16.21;100.00;96448.09;5032619;28;20020;-74
2022/07/31 02:11:29;;;;;;;7.80;4.80;;;;;;;16.12;100.00;96448.41;5050146;28;20667;-74
2022/07/31 02:13:56;;;;;;;7.77;4.37;;;;;;;16.08;100.00;96441.84;5013609;28;20073;-74
2022/07/31 02:16:23;;;;;;;8.47;4.40;;;;;;;16.03;100.00;96445.06;5045677;28;20032;-74
2022/07/31 02:19:02;;;;;;;6.30;4.40;;;;;;;16.05;100.00;96443.03;5021418;28;20033;-74
2022/07/31 02:21:27;;;;;;;7.20;4.32;;;;;;;16.14;100.00;96441.91;5052295;28;20071;-73
2022/07/31 02:23:53;;;;;;;5.95;4.32;;;;;;;16.09;100.00;96443.47;5049615;28;20068;-75
2022/07/31 02:26:20;;;;;;;7.72;4.65;;;;;;;16.06;100.00;96439.38;5049133;28;20032;-74
2022/07/31 02:28:47;;;;;;;7.60;4.50;;;;;;;16.00;100.00;96442.78;5032025;28;20075;-74
2022/07/31 02:31:15;;;;;;;6.28;4.22;;;;;;;15.92;100.00;96438.41;5018871;28;20121;-75
2022/07/31 02:33:46;;;;;;;6.57;4.88;;;;;;;15.85;100.00;96439.34;5033147;28;20029;-74
2022/07/31 02:36:16;;;;;;;8.55;5.10;;;;;;;15.81;100.00;96440.75;5031499;28;20040;-74
2022/07/31 02:38:43;;;;;;;8.80;4.65;;;;;;;15.86;100.00;96440.97;5030761;28;20029;-74
2022/07/31 02:41:10;;;;;;;7.28;5.00;;;;;;;15.77;100.00;96432.34;5024421;28;20049;-74
2022/07/31 02:43:37;;;;;;;6.75;4.47;;;;;;;15.76;100.00;96439.47;5041926;28;20605;-74
2022/07/31 02:46:25;;;;;;;9.60;5.47;;;;;;;15.70;100.00;96440.22;5021153;28;20033;-74
2022/07/31 02:48:51;;;;;;;6.80;4.50;;;;;;;15.65;100.00;96437.25;5026395;28;20039;-74
2022/07/31 02:51:18;;;;;;;5.53;4.00;;;;;;;15.56;100.00;96446.34;5030310;28;20754;-74
2022/07/31 02:53:45;;;;;;;7.05;4.38;;;;;;;15.60;100.00;96442.31;5054650;28;20396;-74
2022/07/31 02:56:12;;;;;;;6.93;4.57;;;;;;;15.59;100.00;96450.44;5014823;28;20032;-74
2022/07/31 02:58:40;;;;;;;8.27;5.03;;;;;;;15.44;100.00;96447.81;5028647;28;20037;-74
2022/07/31 03:01:07;;;;;;;7.67;4.90;;;;;;;15.27;100.00;96442.69;5052332;28;20029;-74
2022/07/31 03:03:34;;;;;;;7.70;5.00;;;;;;;15.24;100.00;96445.72;5029195;28;20056;-74
2022/07/31 03:06:00;;;;;;;8.97;5.40;;;;;;;15.26;100.00;96443.72;5042650;28;20050;-75
2022/07/31 03:08:26;;;;;;;7.70;5.20;;;;;;;15.24;100.00;96440.41;5011218;28;20047;-74
2022/07/31 03:10:54;;;;;;;6.37;4.77;;;;;;;15.27;100.00;96442.69;5046872;28;20039;-74
2022/07/31 03:13:23;;;;;;;8.93;4.97;;;;;;;15.31;100.00;96446.63;5046613;28;20021;-74
2022/07/31 03:15:50;;;;;;;9.07;4.83;;;;;;;15.19;100.00;96448.09;5043837;28;20040;-75
2022/07/31 03:18:17;;;;;;;8.32;5.38;;;;;;;15.07;100.00;96446.91;5045883;28;20052;-74
2022/07/31 03:20:45;;;;;;;8.47;4.90;;;;;;;14.99;100.00;96447.81;5040046;28;20159;-74
2022/07/31 03:23:12;;;;;;;7.32;4.53;;;;;;;14.96;100.00;96452.66;5027048;28;20037;-74
2022/07/31 03:25:49;;;;;;;7.83;5.00;;;;;;;14.95;100.00;96443.88;5014894;28;20036;-74
2022/07/31 03:28:19;;;;;;;8.17;5.13;;;;;;;14.98;100.00;96448.78;5028452;28;20115;-74
2022/07/31 03:30:49;;;;;;;10.77;5.53;;;;;;;14.92;100.00;96446.06;5037144;28;20033;-73
2022/07/31 03:33:14;;;;;;;7.00;4.77;;;;;;;14.85;100.00;96445.94;5026027;28;20029;-74
2022/07/31 03:35:40;;;;;;;7.63;4.80;;;;;;;14.91;100.00;96452.34;5039299;28;20397;-73
2022/07/31 03:38:06;;;;;;;7.47;4.90;;;;;;;14.92;100.00;96448.69;5026134;28;20037;-73
2022/07/31 03:40:32;;;;;;;7.27;4.63;;;;;;;14.95;100.00;96443.03;5023186;28;20123;-74
2022/07/31 03:43:00;;;;;;;8.50;5.20;;;;;;;14.82;100.00;96452.44;5041129;28;20024;-75
2022/07/31 03:45:28;;;;;;;7.90;4.87;;;;;;;14.85;100.00;96445.94;5050511;28;20025;-74
2022/07/31 03:47:54;;;;;;;7.80;4.93;;;;;;;14.76;100.00;96441.75;5045734;28;20029;-75
2022/07/31 03:50:21;;;;;;;7.63;5.00;;;;;;;14.55;100.00;96450.38;5022475;28;20390;-74
2022/07/31 03:52:48;;;;;;;7.77;4.87;;;;;;;14.63;100.00;96442.38;5048338;28;20462;-74
2022/07/31 03:55:14;;;;;;;7.43;4.93;;;;;;;14.36;100.00;96441.91;5029786;28;20717;-74
2022/07/31 03:57:41;;;;;;;9.70;5.53;;;;;;;14.41;100.00;96437.88;5026109;28;20489;-74
2022/07/31 04:00:08;;;;;;;7.37;5.13;;;;;;;14.33;100.00;96439.59;5028573;28;20090;-74
2022/07/31 04:02:42;;;;;;;8.33;5.70;;;;;;;14.43;100.00;96446.47;5045127;28;20036;-74
2022/07/31 04:05:28;;;;;;;8.10;5.13;;;;;;;14.27;100.00;96448.25;5044053;28;20033;-73
2022/07/31 04:07:54;;;;;;;6.90;4.80;;;;;;;14.35;100.00;96450.84;5052096;28;20033;-74
2022/07/31 04:10:21;;;;;;;7.40;5.50;;;;;;;14.43;100.00;96449.13;5022627;28;20111;-74
2022/07/31 04:12:46;;;;;;;7.10;5.30;;;;;;;14.44;100.00;96448.94;5044519;28;20111;-74
2022/07/31 04:15:12;;;;;;;6.07;4.60;;;;;;;14.53;100.00;96447.09;5050199;28;20378;-73
2022/07/31 04:17:38;;;;;;;7.73;5.23;;;;;;;14.52;100.00;96453.38;5009566;28;20029;-74
2022/07/31 04:20:06;;;;;;;10.73;5.17;;;;;;;14.59;100.00;96454.31;5046167;28;20033;-74
2022/07/31 04:22:32;;;;;;;7.77;5.57;;;;;;;14.72;100.00;96451.88;5026578;28;20029;-74
2022/07/31 04:24:59;;;;;;;8.83;5.17;;;;;;;14.75;100.00;96456.78;5027978;28;20037;-74
2022/07/31 04:27:44;;;;;;;7.90;5.53;;;;;;;14.78;100.00;96461.72;5037710;28;20032;-75
2022/07/31 04:30:11;;;;;;;8.90;5.17;;;;;;;14.84;100.00;96463.66;5008291;28;20095;-73
2022/07/31 04:32:37;;;;;;;8.23;4.80;;;;;;;14.87;100.00;96459.03;5039779;28;20513;-73
2022/07/31 04:35:07;;;;;;;6.93;4.47;;;;;;;14.93;100.00;96471.56;5026580;28;20490;-74
2022/07/31 04:37:34;;;;;;;8.13;4.63;;;;;;;14.87;100.00;96473.09;5004774;28;20493;-74
2022/07/31 04:39:59;;;;;;;6.93;5.60;;;;;;;14.86;100.00;96474.09;5024890;28;20036;-74
2022/07/31 04:42:25;;;;;;;8.37;5.20;;;;;;;14.82;100.00;96473.63;5041471;28;20478;-74
2022/07/31 04:44:52;;;;;;;6.87;4.70;;;;;;;14.83;100.00;96469.97;5023277;28;20025;-74
2022/07/31 04:47:18;;;;;;;10.17;5.80;;;;;;;14.91;100.00;96466.41;5026309;28;20390;-74
2022/07/31 04:49:48;;;;;;;11.40;5.07;;;;;;;14.94;100.00;96470.53;5027671;28;20059;-74
2022/07/31 04:52:16;;;;;;;9.50;5.27;;;;;;;14.93;100.00;96468.91;5010424;28;20055;-74
2022/07/31 04:54:44;;;;;;;8.80;5.30;;;;;;;14.91;100.00;96468.25;5027165;28;20037;-74
2022/07/31 04:57:11;;;;;;;7.83;5.93;;;;;;;14.80;100.00;96467.69;5047882;28;20040;-73
2022/07/31 04:59:36;;;;;;;9.13;4.67;;;;;;;14.82;100.00;96465.69;5042303;28;20037;-74
2022/07/31 05:02:02;;;;;;;11.17;4.80;;;;;;;14.91;100.00;96471.72;5024643;28;20033;-74
2022/07/31 05:04:28;;;;;;;6.73;4.83;;;;;;;14.96;100.00;96468.53;5021644;28;20490;-74
2022/07/31 05:06:54;;;;;;;8.30;5.17;;;;;;;15.01;100.00;96471.47;5028165;28;20832;-74
2022/07/31 05:09:22;;;;;;;6.90;5.17;;;;;;;15.17;100.00;96470.47;5025742;28;20033;-73
2022/07/31 05:11:50;;;;;;;8.70;4.87;;;;;;;15.44;100.00;96472.47;5035495;28;20167;-74
2022/07/31 05:14:19;;;;;;;7.50;4.77;;;;;;;15.53;100.00;96474.03;5046727;28;20476;-72
2022/07/31 05:16:46;;;;;;;7.07;5.27;;;;;;;15.83;100.00;96473.19;5054435;28;20040;-74
2022/07/31 05:19:14;;;;;;;12.37;6.00;;;;;;;15.97;100.00;96473.16;5017198;28;20037;-74
2022/07/31 05:21:59;;;;;;;8.10;5.47;;;;;;;16.08;100.00;96466.53;5030026;28;20387;-74
2022/07/31 05:24:27;;;;;;;8.17;5.40;;;;;;;16.05;100.00;96477.53;5020074;28;20060;-74
2022/07/31 05:26:58;;;;;;;8.90;5.50;;;;;;;15.97;100.00;96472.34;5021617;28;20060;-74
2022/07/31 05:29:24;;;;;;;7.35;5.05;;;;;;;15.99;100.00;96476.44;5051314;28;20041;-74
2022/07/31 05:31:50;;;;;;;7.72;4.35;;;;;;;15.98;100.00;96476.63;5029235;28;20037;-74
2022/07/31 05:34:16;;;;;;;6.50;5.30;;;;;;;16.07;100.00;96475.50;5031004;28;20389;-74
2022/07/31 05:36:42;;;;;;;7.25;5.20;;;;;;;16.16;100.00;96470.91;5040923;28;20036;-74
2022/07/31 05:39:09;;;;;;;7.72;4.90;;;;;;;16.19;100.00;96473.19;5030049;28;20025;-74
2022/07/31 05:41:37;;;;;;;6.78;4.30;;;;;;;16.66;100.00;96471.78;5031265;28;20029;-74
2022/07/31 05:44:24;;;;;;;8.10;5.20;;;;;;;16.95;100.00;96468.16;5044497;28;20033;-74
2022/07/31 05:46:51;;;;;;;6.93;4.68;;;;;;;17.31;100.00;96464.53;5029851;28;20033;-73
2022/07/31 05:49:17;;;;;;;8.07;4.45;;;;;;;17.36;100.00;96465.56;5045696;28;20082;-74
2022/07/31 05:51:52;;;;;;;6.63;4.68;;;;;;;17.88;100.00;96466.88;5027849;28;20121;-74
2022/07/31 05:54:19;;;;;;;9.88;5.20;;;;;;;17.98;100.00;96471.81;5048423;28;20032;-74
2022/07/31 05:57:03;;;;;;;7.15;4.40;;;;;;;18.39;100.00;96473.53;5028444;28;20059;-74
2022/07/31 05:59:38;;;;;;;6.53;4.57;;;;;;;18.77;100.00;96465.00;5049308;28;20516;-75
2022/07/31 06:02:03;;;;;;;10.35;4.90;;;;;;;18.97;100.00;96468.47;5031977;28;20103;-74
2022/07/31 06:04:39;;;;;;;9.35;4.15;;;;;;;18.99;100.00;96469.09;5025695;28;20078;-74
2022/07/31 06:07:05;;;;;;;7.07;4.15;;;;;;;19.15;100.00;96470.53;5052491;28;20056;-74
2022/07/31 06:09:31;;;;;;;8.63;4.10;;;;;;;19.05;100.00;96470.13;5026800;28;20080;-74
2022/07/31 06:11:56;;;;;;;6.72;4.50;;;;;;;19.15;100.00;96472.34;5029532;28;20025;-74
2022/07/31 06:14:22;;;;;;;7.05;4.30;;;;;;;19.15;100.00;96477.69;5031528;28;20033;-74
2022/07/31 06:17:23;;;;;;;9.52;4.35;;;;;;;19.37;100.00;96473.75;5006126;28;20516;-74
2022/07/31 06:19:49;;;;;;;6.63;3.83;;;;;;;19.61;100.00;96472.25;5025476;28;20044;-73
2022/07/31 06:22:14;;;;;;;6.82;4.55;;;;;;;19.54;100.00;96477.59;5035641;28;20037;-74
2022/07/31 06:24:40;;;;;;;6.10;4.03;;;;;;;19.94;100.00;96466.00;5010626;28;20560;-74
2022/07/31 06:27:06;;;;;;;5.95;3.83;;;;;;;19.80;100.00;96470.59;5028444;28;20017;-74
2022/07/31 06:29:32;;;;;;;5.50;3.58;;;;;;;19.92;100.00;96468.91;5015155;28;20501;-74
2022/07/31 06:31:58;;;;;;;4.75;3.25;;;;;;;20.20;100.00;96463.19;5013231;28;20120;-74
2022/07/31 06:34:24;;;;;;;5.40;3.13;;;;;;;20.16;96.26;96469.19;5052993;28;20033;-75
2022/07/31 06:36:50;;;;;;;7.25;3.00;;;;;;;20.11;95.35;96466.34;5028624;28;20482;-73
2022/07/31 06:39:19;;;;;;;5.35;3.05;;;;;;;20.54;92.92;96466.50;5027568;28;20604;-74
2022/07/31 06:41:47;;;;;;;4.70;3.03;;;;;;;20.40;92.65;96468.44;5038035;28;20084;-75
2022/07/31 06:44:32;;;;;;;4.85;2.70;;;;;;;20.65;92.49;96470.34;5043137;28;20037;-74
2022/07/31 06:47:18;;;;;;;5.90;2.97;;;;;;;20.65;91.46;96473.81;5042518;28;20091;-74
2022/07/31 06:49:53;;;;;;;6.07;2.70;;;;;;;20.80;93.68;96465.50;5044612;28;20396;-74
2022/07/31 06:52:21;;;;;;;5.10;2.70;;;;;;;21.01;91.85;96471.50;5026194;28;20036;-74
2022/07/31 06:54:47;;;;;;;6.20;3.03;;;;;;;20.98;90.25;96477.28;5027779;28;20033;-74
2022/07/31 06:57:13;;;;;;;5.07;2.70;;;;;;;21.06;90.48;96474.31;5046122;28;20031;-74
2022/07/31 06:59:39;;;;;;;6.97;2.78;;;;;;;21.26;91.00;96472.31;5043647;28;20537;-74
2022/07/31 07:02:04;;;;;;;4.97;2.97;;;;;;;21.18;91.36;96472.56;5028882;28;20033;-73
2022/07/31 07:04:30;;;;;;;3.20;2.30;;;;;;;21.40;86.46;96470.34;5002960;28;20398;-75
2022/07/31 07:06:56;;;;;;;5.20;2.83;;;;;;;21.89;87.06;96468.53;5028044;28;20029;-74
2022/07/31 07:09:22;;;;;;;3.25;2.10;;;;;;;22.02;80.72;96473.72;5028330;28;20033;-74
2022/07/31 07:11:48;;;;;;;5.82;2.30;;;;;;;22.14;79.85;96481.84;5053415;28;20028;-73
2022/07/31 07:14:15;;;;;;;2.63;1.90;;;;;;;22.26;79.64;96476.53;5043067;28;20032;-73
2022/07/31 07:16:40;;;;;;;4.20;1.80;;;;;;;22.19;76.83;96476.63;5051427;28;20028;-73
2022/07/31 07:19:06;;;;;;;3.40;2.13;;;;;;;22.36;76.52;96477.63;5025551;28;20021;-73
2022/07/31 07:21:32;;;;;;;6.75;2.25;;;;;;;22.33;75.33;96472.75;5052312;28;20082;-74
2022/07/31 07:23:58;;;;;;;4.28;2.03;;;;;;;22.38;74.01;96471.25;5055156;28;20521;-74
2022/07/31 07:26:44;;;;;;;4.07;2.00;;;;;;;22.35;74.98;96472.50;5037957;28;20036;-73
2022/07/31 07:29:09;;;;;;;4.53;2.00;;;;;;;23.28;69.70;96465.69;5025354;28;20029;-74
2022/07/31 07:31:36;;;;;;;3.90;2.10;;;;;;;23.84;67.69;96466.09;5026626;28;20057;-73
2022/07/31 07:34:04;;;;;;;3.90;2.05;;;;;;;23.85;61.70;96460.50;5044430;28;20368;-73
2022/07/31 07:36:32;;;;;;;3.67;2.00;;;;;;;23.21;63.71;96457.78;5018549;28;20036;-73
2022/07/31 07:39:21;;;;;;;7.22;1.88;;;;;;;22.96;67.09;96455.28;5024553;28;20036;-73
2022/07/31 07:41:48;;;;;;;6.60;2.00;;;;;;;23.05;67.91;96451.22;5024554;28;20033;-74
2022/07/31 07:44:15;;;;;;;6.32;1.95;;;;;;;22.87;68.09;96454.00;5026087;28;20118;-73
2022/07/31 07:46:41;;;;;;;3.58;2.15;;;;;;;22.71;68.66;96455.47;5033200;28;20767;-73
2022/07/31 07:49:11;;;;;;;5.88;2.22;;;;;;;22.43;70.52;96448.06;5008529;28;20036;-73
2022/07/31 07:51:44;;;;;;;4.53;2.50;;;;;;;22.48;70.27;96453.56;5005646;28;20053;-73
2022/07/31 07:54:30;;;;;;;3.53;1.92;;;;;;;22.53;70.30;96448.31;5024368;28;20099;-74
2022/07/31 07:57:21;;;;;;;3.35;2.00;;;;;;;22.69;68.98;96457.56;5043715;28;20206;-73
2022/07/31 08:00:25;;;;;;;3.15;1.85;;;;;;;22.50;68.80;96453.31;4993991;28;20136;-73
2022/07/31 08:02:57;;;;;;;3.65;1.83;;;;;;;22.45;69.50;96461.25;4976376;28;20841;-73
2022/07/31 08:05:23;;;;;;;4.55;2.13;;;;;;;22.66;68.29;96457.22;5018184;28;20094;-73
2022/07/31 08:07:49;;;;;;;5.10;1.70;;;;;;;22.40;71.12;96464.63;5046189;28;20586;-74
2022/07/31 08:10:42;;;;;;;3.90;1.80;;;;;;;22.43;70.54;96464.13;5005338;28;20097;-74
2022/07/31 08:13:18;;;;;;;3.58;1.88;;;;;;;22.32;69.71;96460.38;5023132;28;20036;-74
2022/07/31 08:16:03;;;;;;;3.75;1.90;;;;;;;22.65;71.77;96464.44;5043492;28;20083;-73
2022/07/31 08:18:32;;;;;;;4.40;2.00;;;;;;;23.15;65.12;96460.56;5023445;28;20522;-74
2022/07/31 08:20:58;;;;;;;3.22;1.60;;;;;;;23.76;61.59;96461.94;5044462;28;20086;-74
2022/07/31 08:23:23;;;;;;;3.58;1.90;;;;;;;24.09;58.89;96458.56;5023268;28;20033;-74
2022/07/31 08:25:50;;;;;;;6.25;1.92;;;;;;;24.04;58.61;96463.00;5022112;28;20103;-74
2022/07/31 08:28:16;;;;;;;2.35;1.70;;;;;;;24.53;55.23;96466.13;5029514;28;20029;-74
2022/07/31 08:30:42;;;;;;;6.25;2.45;;;;;;;24.51;55.19;96458.28;5043824;28;20513;-74
2022/07/31 08:33:09;;;;;;;4.70;1.90;;;;;;;25.28;52.28;96451.47;5026768;28;20572;-74
2022/07/31 08:35:41;;;;;;;4.95;1.83;;;;;;;25.54;53.01;96450.75;5027359;28;20036;-75
2022/07/31 08:38:07;;;;;;;7.15;2.63;;;;;;;24.83;52.81;96461.25;5026439;28;20057;-73
2022/07/31 08:40:42;;;;;;;5.75;2.85;;;;;;;25.80;52.48;96454.63;5013567;28;20442;-74
2022/07/31 08:43:07;;;;;;;8.95;3.53;;;;;;;25.69;51.39;96452.03;5026223;28;20058;-74
2022/07/31 08:45:36;;;;;;;3.85;1.77;;;;;;;25.93;52.12;96453.44;5024181;28;20017;-74
2022/07/31 08:48:29;;;;;;;4.40;2.22;;;;;;;26.46;48.40;96440.25;5028917;28;20708;-77
2022/07/31 08:50:57;;;;;;;3.75;1.70;;;;;;;26.34;48.31;96445.81;5007667;28;20136;-75
2022/07/31 11:50:18;;;;;;;3.72;1.50;;;;;;;31.02;28.61;96331.84;5057035;27;20138;-75
2022/07/31 11:52:46;;;;;;;3.58;1.63;;;;;;;31.17;29.05;96333.56;5082716;27;20123;-74
2022/07/31 11:55:14;;;;;;;2.03;1.52;;;;;;;31.63;28.28;96330.34;5112715;27;20031;-75
2022/07/31 11:57:40;;;;;;;1.75;1.30;;;;;;;30.98;29.05;96326.16;5112923;27;20034;-75
2022/07/31 12:00:15;;;;;;;3.75;1.65;;;;;;;30.86;29.51;96327.66;5148381;27;20030;-75
2022/07/31 12:02:45;;;;;;;3.17;1.80;;;;;;;30.83;29.82;96323.59;5123800;27;20042;-75
2022/07/31 12:05:12;;;;;;;3.58;1.48;;;;;;;32.72;26.86;96317.59;5158904;27;20058;-75
2022/07/31 12:07:42;;;;;;;2.55;1.60;;;;;;;32.35;27.81;96314.63;5153878;27;20962;-75
2022/07/31 12:10:12;;;;;;;3.08;1.60;;;;;;;31.10;28.46;96306.75;5151203;27;20049;-74
2022/07/31 12:12:41;;;;;;;2.35;1.80;;;;;;;32.44;28.04;96311.28;5150618;27;20110;-75
2022/07/31 12:15:18;;;;;;;1.75;1.40;;;;;;;32.89;26.56;96298.75;5129612;27;20038;-75
2022/07/31 12:17:45;;;;;;;2.80;1.40;;;;;;;31.92;28.75;96312.00;5137604;27;20176;-75
2022/07/31 12:20:11;;;;;;;2.55;1.30;;;;;;;32.16;28.64;96306.50;5142498;27;20019;-75
2022/07/31 12:22:37;;;;;;;7.20;2.85;;;;;;;31.55;28.51;96301.88;5155018;27;20118;-75
2022/07/31 12:25:03;;;;;;;5.05;2.47;;;;;;;31.74;29.21;96303.84;5125276;27;20110;-75
2022/07/31 12:27:28;;;;;;;5.95;3.50;;;;;;;31.74;30.34;96301.13;5136536;27;20035;-75
2022/07/31 12:29:54;;;;;;;3.35;1.27;;;;;;;32.16;29.07;96300.25;5132320;27;21009;-75
2022/07/31 12:32:25;;;;;;;2.35;1.65;;;;;;;32.53;28.98;96290.41;5146078;27;20160;-75
2022/07/31 12:35:02;;;;;;;3.65;1.40;;;;;;;32.13;29.03;96296.22;5152431;27;20031;-75
2022/07/31 12:37:28;;;;;;;1.48;1.17;;;;;;;31.76;29.21;96294.28;5133081;27;20403;-75
2022/07/31 12:39:55;;;;;;;2.83;1.60;;;;;;;30.88;29.52;96292.88;5127084;27;21290;-75
2022/07/31 12:42:26;;;;;;;2.83;1.48;;;;;;;31.06;30.14;96286.72;5124628;27;20551;-75
2022/07/31 12:44:53;;;;;;;4.45;1.60;;;;;;;30.38;30.69;96282.16;5124535;27;20132;-75
2022/07/31 12:47:31;;;;;;;1.52;1.25;;;;;;;30.10;31.56;96283.72;5101957;27;20027;-75
2022/07/31 12:49:59;;;;;;;3.25;1.80;;;;;;;29.48;32.83;96301.44;5120430;27;20045;-75
2022/07/31 12:52:30;;;;;;;3.13;1.45;;;;;;;29.55;32.20;96289.19;5096670;27;20043;-75
2022/07/31 12:54:57;;;;;;;3.15;1.38;;;;;;;29.68;31.98;96287.81;5074107;27;20076;-74
2022/07/31 12:57:23;;;;;;;2.70;1.58;;;;;;;30.26;31.70;96282.56;5100140;27;20080;-74
2022/07/31 12:59:49;;;;;;;4.28;1.60;;;;;;;30.87;30.91;96274.97;5110622;27;20081;-75
2022/07/31 13:02:16;;;;;;;4.13;1.60;;;;;;;30.95;30.63;96271.59;5112529;27;20479;-76
2022/07/31 13:04:42;;;;;;;3.80;1.50;;;;;;;30.77;31.58;96271.25;5112424;27;20408;-75
2022/07/31 13:07:08;;;;;;;2.35;1.40;;;;;;;30.04;31.54;96274.00;5126725;27;20038;-75
2022/07/31 13:09:33;;;;;;;5.72;4.03;;;;;;;30.73;32.03;96264.75;5099011;27;20027;-75
2022/07/31 13:11:59;;;;;;;8.90;7.00;;;;;;;30.02;32.72;96266.16;5081726;27;20046;-76
2022/07/31 13:14:25;;;;;;;7.15;2.05;;;;;;;29.48;33.35;96263.50;5107746;27;20039;-74
2022/07/31 13:16:53;;;;;;;8.57;7.68;;;;;;;29.53;33.82;96266.97;5090295;27;20098;-75
2022/07/31 13:19:19;;;;;;;4.70;1.60;;;;;;;29.86;32.75;96266.56;5092854;27;20122;-75
2022/07/31 13:21:45;;;;;;;5.88;1.70;;;;;;;31.50;30.65;96254.97;5093152;27;20768;-75
2022/07/31 13:24:12;;;;;;;3.50;1.88;;;;;;;31.23;31.46;96257.16;5109834;27;20019;-74
2022/07/31 13:26:40;;;;;;;1.73;1.48;;;;;;;31.11;31.30;96248.59;5094690;27;20046;-75
2022/07/31 13:29:06;;;;;;;3.15;1.70;;;;;;;32.42;30.39;96238.06;5097063;27;20462;-75
2022/07/31 13:31:32;;;;;;;2.58;1.48;;;;;;;32.09;30.57;96246.22;5099840;27;20032;-75
2022/07/31 13:33:58;;;;;;;2.75;1.52;;;;;;;31.67;30.44;96250.63;5134562;27;20164;-75
2022/07/31 13:36:24;;;;;;;5.30;1.67;;;;;;;30.81;31.71;96243.53;5118438;27;20393;-74
2022/07/31 13:38:50;;;;;;;3.05;1.63;;;;;;;30.21;32.43;96241.09;5110651;27;20039;-74
2022/07/31 13:41:19;;;;;;;2.42;1.50;;;;;;;29.28;33.26;96246.25;5089453;27;20054;-74
2022/07/31 13:43:55;;;;;;;3.30;1.83;;;;;;;28.96;33.89;96243.09;5116321;27;21261;-75
2022/07/31 13:46:21;;;;;;;5.00;1.90;;;;;;;29.08;34.28;96241.75;5080337;27;20108;-74
2022/07/31 13:48:50;;;;;;;4.05;1.67;;;;;;;28.94;34.40;96242.56;5093136;27;20046;-75
2022/07/31 13:51:16;;;;;;;2.33;1.60;;;;;;;28.87;34.44;96243.69;5103154;27;20102;-75
2022/07/31 13:53:41;;;;;;;4.03;1.85;;;;;;;28.65;34.21;96235.06;5108462;28;20032;-75
2022/07/31 13:56:07;;;;;;;4.20;1.90;;;;;;;28.92;34.40;96229.31;5107503;27;20024;-75
2022/07/31 13:58:33;;;;;;;3.33;1.70;;;;;;;29.34;34.28;96228.06;5129266;27;20080;-74
2022/07/31 14:00:59;;;;;;;2.88;1.70;;;;;;;29.24;33.82;96220.81;5107372;27;20109;-75
2022/07/31 14:03:25;;;;;;;2.65;1.70;;;;;;;30.10;33.05;96218.63;5113414;27;20031;-75
2022/07/31 14:05:51;;;;;;;13.38;10.52;;;;;;;31.28;31.00;96217.44;5115337;27;20031;-76
2022/07/31 14:08:18;;;;;;;5.72;2.33;;;;;;;31.22;31.32;96209.38;5108937;27;20027;-76
2022/07/31 14:10:45;;;;;;;5.50;1.85;;;;;;;31.54;31.30;96207.84;5136968;27;20019;-75
2022/07/31 14:13:11;;;;;;;3.53;1.90;;;;;;;31.44;30.31;96205.28;5070988;27;21463;-75
2022/07/31 14:15:37;;;;;;;3.72;1.90;;;;;;;31.60;30.25;96201.25;5032365;27;20476;-75
2022/07/31 14:18:03;;;;;;;5.40;1.63;;;;;;;31.30;30.13;96207.91;5057387;27;20027;-76
2022/07/31 14:20:32;;;;;;;2.78;1.67;;;;;;;31.55;30.45;96198.59;5044965;27;20035;-76
2022/07/31 14:22:59;;;;;;;2.10;1.45;;;;;;;31.49;30.44;96201.69;5029500;27;20111;-75
2022/07/31 14:25:25;;;;;;;5.65;1.67;;;;;;;29.86;32.61;96198.78;5019467;27;20038;-76
2022/07/31 14:27:52;;;;;;;3.10;1.80;;;;;;;29.96;32.77;96196.00;5002023;27;20634;-75
2022/07/31 14:30:19;;;;;;;3.08;1.75;;;;;;;30.22;33.15;96199.31;5021977;27;20062;-76
2022/07/31 14:32:45;;;;;;;2.30;1.63;;;;;;;29.98;33.34;96193.78;5077949;27;20483;-74
2022/07/31 14:35:10;;;;;;;3.03;1.77;;;;;;;29.78;33.40;96198.28;5106458;27;20027;-75